DLH35H EDDF-EDDL
Flight info
| Callsign | DLH35H |
|---|---|
| Flight time | 0h 32m |
| Altitude | 24000 |
| Route | MARUN3W/25C MARUN Y152 ARPEG Z850 ADEMI T854 DOMUX DOMUX1A |
| Aircraft | A343/H-SDE2E3FGHIJ4J5M1RWXY/LB1D1 |
Departure
| Time | 2026-05-05 18:52 |
|---|---|
| Airport | Frankfurt Main Airport (EDDF) |
Arrival
| Time | 2026-05-05 19:25 |
|---|---|
| Airport | Düsseldorf Airport (EDDL) |
| Time | Latitude | Longitude | Altitude | Speed | Heading |
|---|---|---|---|---|---|
| 2026-05-05 18:15 | 50.04726 | 8.56275 | 369 ft | 0 kts | 340° |
| 2026-05-05 18:36 | 50.04715 | 8.56281 | 367 ft | 4 kts | 340° |
| 2026-05-05 18:36 | 50.04690 | 8.56296 | 365 ft | 4 kts | 339° |
| 2026-05-05 18:37 | 50.04665 | 8.56312 | 369 ft | 4 kts | 329° |
| 2026-05-05 18:37 | 50.04648 | 8.56335 | 367 ft | 4 kts | 285° |
| 2026-05-05 18:37 | 50.04650 | 8.56363 | 369 ft | 4 kts | 250° |
| 2026-05-05 18:37 | 50.04659 | 8.56402 | 368 ft | 3 kts | 250° |
| 2026-05-05 18:38 | 50.04661 | 8.56411 | 367 ft | 0 kts | 250° |
| 2026-05-05 18:41 | 50.04648 | 8.56359 | 366 ft | 13 kts | 250° |
| 2026-05-05 18:42 | 50.04601 | 8.56159 | 365 ft | 24 kts | 250° |
| 2026-05-05 18:42 | 50.04538 | 8.55957 | 367 ft | 16 kts | 221° |
| 2026-05-05 18:42 | 50.04463 | 8.55923 | 365 ft | 13 kts | 196° |
| 2026-05-05 18:42 | 50.04366 | 8.55919 | 362 ft | 16 kts | 165° |
| 2026-05-05 18:43 | 50.04243 | 8.55939 | 361 ft | 19 kts | 199° |
| 2026-05-05 18:43 | 50.04113 | 8.55960 | 366 ft | 20 kts | 157° |
| 2026-05-05 18:43 | 50.04082 | 8.56090 | 363 ft | 12 kts | 69° |
| 2026-05-05 18:43 | 50.04123 | 8.56260 | 365 ft | 30 kts | 70° |
| 2026-05-05 18:44 | 50.04218 | 8.56661 | 369 ft | 43 kts | 70° |
| 2026-05-05 18:44 | 50.04319 | 8.57083 | 371 ft | 43 kts | 69° |
| 2026-05-05 18:44 | 50.04425 | 8.57526 | 369 ft | 45 kts | 69° |
| 2026-05-05 18:44 | 50.04528 | 8.57960 | 369 ft | 41 kts | 69° |
| 2026-05-05 18:45 | 50.04603 | 8.58274 | 377 ft | 20 kts | 70° |
| 2026-05-05 18:45 | 50.04647 | 8.58454 | 377 ft | 0 kts | 70° |
| 2026-05-05 18:46 | 50.04653 | 8.58494 | 376 ft | 10 kts | 81° |
| 2026-05-05 18:46 | 50.04616 | 8.58572 | 374 ft | 9 kts | 152° |
| 2026-05-05 18:46 | 50.04599 | 8.58582 | 377 ft | 0 kts | 159° |
| 2026-05-05 18:49 | 50.04586 | 8.58590 | 377 ft | 8 kts | 160° |
| 2026-05-05 18:49 | 50.04498 | 8.58595 | 378 ft | 13 kts | 214° |
| 2026-05-05 18:49 | 50.04472 | 8.58520 | 378 ft | 0 kts | 248° |
| 2026-05-05 18:49 | 50.04472 | 8.58518 | 378 ft | 0 kts | 249° |
| 2026-05-05 18:51 | 50.04470 | 8.58511 | 377 ft | 11 kts | 249° |
| 2026-05-05 18:51 | 50.04351 | 8.58021 | 375 ft | 83 kts | 250° |
| 2026-05-05 18:51 | 50.04087 | 8.56906 | 371 ft | 138 kts | 249° |
| 2026-05-05 18:51 | 50.03695 | 8.55269 | 379 ft | 182 kts | 249° |
| 2026-05-05 18:52 | 50.03266 | 8.53336 | 898 ft | 190 kts | 251° |
| 2026-05-05 18:52 | 50.02876 | 8.51316 | 1543 ft | 201 kts | 253° |
| 2026-05-05 18:52 | 50.02176 | 8.49310 | 2039 ft | 227 kts | 224° |
| 2026-05-05 18:52 | 50.00785 | 8.48103 | 3100 ft | 230 kts | 197° |
| 2026-05-05 18:53 | 49.99272 | 8.47686 | 4541 ft | 216 kts | 189° |
| 2026-05-05 18:53 | 49.97812 | 8.47411 | 5754 ft | 208 kts | 189° |
| 2026-05-05 18:53 | 49.96384 | 8.47107 | 6468 ft | 207 kts | 193° |
| 2026-05-05 18:53 | 49.94964 | 8.46563 | 6975 ft | 216 kts | 198° |
| 2026-05-05 18:54 | 49.93984 | 8.46117 | 7433 ft | 226 kts | 199° |
| 2026-05-05 18:54 | 49.92487 | 8.45258 | 8342 ft | 231 kts | 210° |
| 2026-05-05 18:54 | 49.91268 | 8.43641 | 9329 ft | 235 kts | 234° |
| 2026-05-05 18:54 | 49.90645 | 8.41286 | 10228 ft | 241 kts | 261° |
| 2026-05-05 18:55 | 49.90807 | 8.38667 | 11056 ft | 252 kts | 287° |
| 2026-05-05 18:55 | 49.91801 | 8.36390 | 11883 ft | 265 kts | 316° |
| 2026-05-05 18:55 | 49.93424 | 8.34933 | 12738 ft | 277 kts | 332° |
| 2026-05-05 18:55 | 49.95268 | 8.33749 | 13219 ft | 297 kts | 334° |
| 2026-05-05 18:56 | 49.97253 | 8.32513 | 13623 ft | 316 kts | 334° |
| 2026-05-05 18:56 | 49.99352 | 8.31185 | 13978 ft | 334 kts | 334° |
| 2026-05-05 18:56 | 50.01562 | 8.29788 | 14337 ft | 353 kts | 336° |
| 2026-05-05 18:56 | 50.03833 | 8.28826 | 14657 ft | 372 kts | 349° |
| 2026-05-05 18:57 | 50.06383 | 8.28815 | 15135 ft | 388 kts | 7° |
| 2026-05-05 18:57 | 50.09032 | 8.29874 | 15773 ft | 397 kts | 17° |
| 2026-05-05 18:57 | 50.11665 | 8.31258 | 16409 ft | 404 kts | 18° |
| 2026-05-05 18:57 | 50.14362 | 8.32703 | 16778 ft | 412 kts | 18° |
| 2026-05-05 18:58 | 50.17035 | 8.34127 | 16850 ft | 411 kts | 18° |
| 2026-05-05 18:58 | 50.19750 | 8.35566 | 16850 ft | 411 kts | 18° |
| 2026-05-05 18:58 | 50.22503 | 8.37020 | 17012 ft | 414 kts | 18° |
| 2026-05-05 18:58 | 50.25199 | 8.38442 | 17672 ft | 417 kts | 18° |
| 2026-05-05 18:59 | 50.27828 | 8.39829 | 18406 ft | 419 kts | 19° |
| 2026-05-05 18:59 | 50.30599 | 8.41293 | 19078 ft | 422 kts | 19° |
| 2026-05-05 18:59 | 50.33378 | 8.42801 | 19757 ft | 424 kts | 20° |
| 2026-05-05 18:59 | 50.36175 | 8.44337 | 20427 ft | 426 kts | 20° |
| 2026-05-05 19:00 | 50.38978 | 8.45875 | 21085 ft | 429 kts | 20° |
| 2026-05-05 19:00 | 50.41807 | 8.47427 | 21692 ft | 432 kts | 20° |
| 2026-05-05 19:00 | 50.44660 | 8.48990 | 22287 ft | 436 kts | 20° |
| 2026-05-05 19:00 | 50.47530 | 8.50564 | 22894 ft | 439 kts | 20° |
| 2026-05-05 19:01 | 50.50451 | 8.52054 | 23448 ft | 443 kts | 18° |
| 2026-05-05 19:01 | 50.53424 | 8.53446 | 23744 ft | 449 kts | 18° |
| 2026-05-05 19:01 | 50.54751 | 8.54063 | 23797 ft | 451 kts | 17° |
| 2026-05-05 19:01 | 50.57866 | 8.55089 | 23819 ft | 462 kts | 7° |
| 2026-05-05 19:02 | 50.61106 | 8.55149 | 23822 ft | 469 kts | 354° |
| 2026-05-05 19:02 | 50.64309 | 8.54174 | 23818 ft | 470 kts | 345° |
| 2026-05-05 19:02 | 50.67428 | 8.52593 | 23819 ft | 471 kts | 340° |
| 2026-05-05 19:02 | 50.70472 | 8.50706 | 23819 ft | 471 kts | 338° |
| 2026-05-05 19:03 | 50.73497 | 8.48690 | 23809 ft | 471 kts | 337° |
| 2026-05-05 19:03 | 50.76506 | 8.46662 | 23815 ft | 471 kts | 337° |
| 2026-05-05 19:03 | 50.79524 | 8.44659 | 23824 ft | 471 kts | 338° |
| 2026-05-05 19:03 | 50.82564 | 8.42685 | 23816 ft | 470 kts | 338° |
| 2026-05-05 19:04 | 50.85597 | 8.40750 | 23814 ft | 469 kts | 338° |
| 2026-05-05 19:04 | 50.88637 | 8.38831 | 23811 ft | 470 kts | 339° |
| 2026-05-05 19:04 | 50.91637 | 8.36946 | 23812 ft | 470 kts | 339° |
| 2026-05-05 19:04 | 50.94553 | 8.35116 | 23814 ft | 469 kts | 339° |
| 2026-05-05 19:05 | 50.97587 | 8.33210 | 23815 ft | 470 kts | 339° |
| 2026-05-05 19:05 | 51.00622 | 8.31250 | 23818 ft | 470 kts | 336° |
| 2026-05-05 19:05 | 51.03350 | 8.28981 | 23810 ft | 462 kts | 328° |
| 2026-05-05 19:05 | 51.05785 | 8.26139 | 23793 ft | 449 kts | 317° |
| 2026-05-05 19:06 | 51.07928 | 8.22608 | 23298 ft | 442 kts | 309° |
| 2026-05-05 19:06 | 51.09897 | 8.18829 | 22425 ft | 444 kts | 307° |
| 2026-05-05 19:06 | 51.11818 | 8.15009 | 21807 ft | 440 kts | 307° |
| 2026-05-05 19:06 | 51.13709 | 8.11219 | 21227 ft | 436 kts | 307° |
| 2026-05-05 19:07 | 51.15583 | 8.07449 | 20656 ft | 432 kts | 307° |
| 2026-05-05 19:07 | 51.17436 | 8.03713 | 20079 ft | 428 kts | 307° |
| 2026-05-05 19:07 | 51.19272 | 8.00002 | 19512 ft | 424 kts | 307° |
| 2026-05-05 19:07 | 51.21081 | 7.96339 | 18957 ft | 420 kts | 307° |
| 2026-05-05 19:08 | 51.22887 | 7.92678 | 18412 ft | 416 kts | 307° |
| 2026-05-05 19:08 | 51.24648 | 7.89104 | 17820 ft | 413 kts | 307° |
| 2026-05-05 19:08 | 51.26411 | 7.85519 | 17245 ft | 409 kts | 307° |
| 2026-05-05 19:08 | 51.28153 | 7.81973 | 16699 ft | 404 kts | 307° |
| 2026-05-05 19:09 | 51.29875 | 7.78462 | 16165 ft | 399 kts | 307° |
| 2026-05-05 19:09 | 51.31499 | 7.75145 | 15657 ft | 395 kts | 307° |
| 2026-05-05 19:09 | 51.33180 | 7.71710 | 15119 ft | 391 kts | 307° |
| 2026-05-05 19:09 | 51.34848 | 7.68295 | 14585 ft | 388 kts | 307° |
| 2026-05-05 19:10 | 51.36504 | 7.64902 | 14102 ft | 385 kts | 307° |
| 2026-05-05 19:10 | 51.38143 | 7.61537 | 13872 ft | 383 kts | 307° |
| 2026-05-05 19:10 | 51.39704 | 7.58328 | 13825 ft | 384 kts | 307° |
| 2026-05-05 19:10 | 51.41188 | 7.54778 | 13826 ft | 383 kts | 295° |
| 2026-05-05 19:11 | 51.41984 | 7.50753 | 13828 ft | 376 kts | 276° |
| 2026-05-05 19:11 | 51.41906 | 7.46621 | 13754 ft | 366 kts | 257° |
| 2026-05-05 19:11 | 51.41168 | 7.43180 | 13552 ft | 355 kts | 244° |
| 2026-05-05 19:11 | 51.40139 | 7.39644 | 13307 ft | 345 kts | 243° |
| 2026-05-05 19:12 | 51.39115 | 7.36220 | 13093 ft | 336 kts | 243° |
| 2026-05-05 19:12 | 51.38120 | 7.32895 | 12875 ft | 327 kts | 243° |
| 2026-05-05 19:12 | 51.37158 | 7.29659 | 12683 ft | 318 kts | 243° |
| 2026-05-05 19:12 | 51.36253 | 7.26646 | 12497 ft | 311 kts | 243° |
| 2026-05-05 19:13 | 51.35375 | 7.23751 | 12244 ft | 306 kts | 243° |
| 2026-05-05 19:13 | 51.34440 | 7.20659 | 11912 ft | 304 kts | 243° |
| 2026-05-05 19:13 | 51.33532 | 7.17654 | 11586 ft | 303 kts | 243° |
| 2026-05-05 19:13 | 51.32701 | 7.14923 | 11396 ft | 297 kts | 243° |
| 2026-05-05 19:14 | 51.31782 | 7.11935 | 11103 ft | 294 kts | 243° |
| 2026-05-05 19:14 | 51.30890 | 7.09055 | 10876 ft | 292 kts | 243° |
| 2026-05-05 19:14 | 51.29987 | 7.06155 | 10833 ft | 292 kts | 243° |
| 2026-05-05 19:14 | 51.29080 | 7.03244 | 10832 ft | 293 kts | 243° |
| 2026-05-05 19:15 | 51.28212 | 7.00450 | 10829 ft | 292 kts | 243° |
| 2026-05-05 19:15 | 51.27246 | 6.97603 | 10750 ft | 291 kts | 237° |
| 2026-05-05 19:15 | 51.26134 | 6.95037 | 10462 ft | 290 kts | 233° |
| 2026-05-05 19:15 | 51.25001 | 6.92591 | 10172 ft | 290 kts | 233° |
| 2026-05-05 19:16 | 51.23798 | 6.90019 | 9869 ft | 289 kts | 233° |
| 2026-05-05 19:16 | 51.22605 | 6.87478 | 9560 ft | 288 kts | 233° |
| 2026-05-05 19:16 | 51.21404 | 6.84926 | 9219 ft | 287 kts | 233° |
| 2026-05-05 19:16 | 51.20230 | 6.82431 | 8899 ft | 286 kts | 233° |
| 2026-05-05 19:17 | 51.19067 | 6.79961 | 8563 ft | 285 kts | 233° |
| 2026-05-05 19:17 | 51.17881 | 6.77441 | 8259 ft | 283 kts | 233° |
| 2026-05-05 19:17 | 51.16703 | 6.74938 | 7878 ft | 280 kts | 233° |
| 2026-05-05 19:17 | 51.15544 | 6.72473 | 7284 ft | 277 kts | 233° |
| 2026-05-05 19:18 | 51.14393 | 6.70026 | 6577 ft | 276 kts | 233° |
| 2026-05-05 19:18 | 51.13236 | 6.67574 | 6047 ft | 277 kts | 233° |
| 2026-05-05 19:18 | 51.12073 | 6.65124 | 5729 ft | 276 kts | 233° |
| 2026-05-05 19:18 | 51.10938 | 6.62738 | 5409 ft | 274 kts | 233° |
| 2026-05-05 19:19 | 51.09966 | 6.60144 | 5033 ft | 273 kts | 251° |
| 2026-05-05 19:19 | 51.09763 | 6.57166 | 4656 ft | 272 kts | 279° |
| 2026-05-05 19:19 | 51.10435 | 6.54408 | 4285 ft | 267 kts | 307° |
| 2026-05-05 19:19 | 51.11798 | 6.52465 | 3882 ft | 264 kts | 334° |
| 2026-05-05 19:20 | 51.13549 | 6.51799 | 3528 ft | 257 kts | 2° |
| 2026-05-05 19:20 | 51.15279 | 6.52398 | 3180 ft | 255 kts | 20° |
| 2026-05-05 19:20 | 51.16913 | 6.53417 | 3021 ft | 246 kts | 25° |
| 2026-05-05 19:20 | 51.18270 | 6.54883 | 3011 ft | 229 kts | 46° |
| 2026-05-05 19:21 | 51.19236 | 6.56814 | 2982 ft | 216 kts | 55° |
| 2026-05-05 19:21 | 51.20091 | 6.58731 | 2800 ft | 212 kts | 53° |
| 2026-05-05 19:21 | 51.20987 | 6.60566 | 2493 ft | 213 kts | 52° |
| 2026-05-05 19:21 | 51.21842 | 6.62343 | 2248 ft | 207 kts | 52° |
| 2026-05-05 19:22 | 51.22643 | 6.64036 | 1933 ft | 192 kts | 51° |
| 2026-05-05 19:22 | 51.23416 | 6.65654 | 1691 ft | 174 kts | 51° |
| 2026-05-05 19:22 | 51.24115 | 6.67119 | 1466 ft | 157 kts | 51° |
| 2026-05-05 19:22 | 51.24741 | 6.68432 | 1258 ft | 140 kts | 51° |
| 2026-05-05 19:23 | 51.25300 | 6.69610 | 1034 ft | 128 kts | 51° |
| 2026-05-05 19:23 | 51.25809 | 6.70733 | 852 ft | 123 kts | 52° |
| 2026-05-05 19:23 | 51.26328 | 6.71846 | 729 ft | 130 kts | 48° |
| 2026-05-05 19:23 | 51.26897 | 6.72988 | 582 ft | 129 kts | 51° |
| 2026-05-05 19:24 | 51.27420 | 6.74109 | 406 ft | 123 kts | 45° |
| 2026-05-05 19:24 | 51.27950 | 6.75168 | 243 ft | 119 kts | 51° |
| 2026-05-05 19:24 | 51.28426 | 6.76161 | 137 ft | 106 kts | 51° |
| 2026-05-05 19:24 | 51.28768 | 6.76885 | 129 ft | 56 kts | 55° |
| 2026-05-05 19:25 | 51.28889 | 6.77155 | 127 ft | 10 kts | 53° |
| 2026-05-05 19:25 | 51.28970 | 6.77332 | 128 ft | 29 kts | 53° |
| 2026-05-05 19:25 | 51.28994 | 6.77578 | 126 ft | 17 kts | 139° |
| 2026-05-05 19:25 | 51.28917 | 6.77630 | 133 ft | 10 kts | 190° |
| 2026-05-05 19:26 | 51.28873 | 6.77569 | 131 ft | 9 kts | 230° |
| 2026-05-05 19:26 | 51.28831 | 6.77486 | 127 ft | 10 kts | 226° |
| 2026-05-05 19:26 | 51.28781 | 6.77391 | 128 ft | 14 kts | 232° |
| 2026-05-05 19:26 | 51.28709 | 6.77235 | 132 ft | 22 kts | 233° |
| 2026-05-05 19:27 | 51.28608 | 6.77006 | 128 ft | 28 kts | 232° |
| 2026-05-05 19:27 | 51.28480 | 6.76750 | 125 ft | 30 kts | 236° |
| 2026-05-05 19:27 | 51.28353 | 6.76481 | 125 ft | 30 kts | 227° |
| 2026-05-05 19:27 | 51.28227 | 6.76223 | 130 ft | 29 kts | 233° |
| 2026-05-05 19:28 | 51.28104 | 6.75966 | 129 ft | 29 kts | 232° |
| 2026-05-05 19:28 | 51.27990 | 6.75725 | 132 ft | 30 kts | 233° |
| 2026-05-05 19:28 | 51.27873 | 6.75480 | 125 ft | 20 kts | 233° |
| 2026-05-05 19:28 | 51.27804 | 6.75391 | 126 ft | 7 kts | 177° |
| 2026-05-05 19:29 | 51.27732 | 6.75437 | 126 ft | 21 kts | 155° |
| 2026-05-05 19:29 | 51.27615 | 6.75525 | 123 ft | 8 kts | 159° |
| 2026-05-05 19:29 | 51.27592 | 6.75540 | 129 ft | 0 kts | 156° |
| 2026-05-05 19:29 | 51.27590 | 6.75541 | 130 ft | 1 kts | 156° |
| 2026-05-05 19:30 | 51.27530 | 6.75587 | 129 ft | 13 kts | 154° |
| 2026-05-05 19:30 | 51.27478 | 6.75612 | 127 ft | 3 kts | 197° |
| 2026-05-05 19:30 | 51.27458 | 6.75578 | 130 ft | 7 kts | 235° |
| 2026-05-05 19:30 | 51.27449 | 6.75559 | 128 ft | 1 kts | 230° |
| 2026-05-05 19:31 | 51.27441 | 6.75541 | 126 ft | 1 kts | 241° |
| 2026-05-05 19:31 | 51.27440 | 6.75538 | 126 ft | 0 kts | 241° |